Terminal Aerodrome Forecast
Issued by NWS

Home | Current Version | Previous Version | Text Only | Print | Product List | Glossary On
Versions: 1 2 3 4 5 6 7 8 9 10 11 12 13 14 15 16 17 18 19 20 21 22 23 24 25 26 27 28 29 30 31 32 33 34 35 36 37 38 39
000
FTUS41 KAKQ 240553 RRA
TAFPHF
TAF
KPHF 240553Z 2406/2506 33013G21KT P6SM OVC010
      TEMPO 2406/2410 4SM -RA BR OVC005
     FM241200 31013G20KT P6SM OVC007
     FM241700 30013G20KT P6SM OVC025
     FM242100 30011KT P6SM BKN050
     FM250200 30008KT P6SM SKC=

USA.gov is the U.S. government's official web portal to all federal, state and local government web resources and services.